createdAt,value
2019-02-26T00:02:19.801Z,16.70
2019-02-26T00:04:49.101Z,17.05
2019-02-26T00:07:18.834Z,16.40
2019-02-26T00:09:46.321Z,15.72
2019-02-26T00:12:13.646Z,16.73
2019-02-26T00:14:43.051Z,16.45
2019-02-26T00:17:11.219Z,16.57
2019-02-26T00:19:38.857Z,16.17
2019-02-26T00:22:07.770Z,17.40
2019-02-26T00:24:35.317Z,17.25
2019-02-26T00:27:05.484Z,16.45
2019-02-26T00:29:32.988Z,17.67
2019-02-26T00:32:00.306Z,16.57
2019-02-26T00:34:27.614Z,17.70
2019-02-26T00:36:54.909Z,17.00
2019-02-26T00:39:23.211Z,16.37
2019-02-26T00:41:53.217Z,16.20
2019-02-26T00:44:21.199Z,15.85
2019-02-26T00:46:49.084Z,18.02
2019-02-26T00:49:16.361Z,15.85
2019-02-26T00:51:46.024Z,16.45
2019-02-26T00:54:12.642Z,16.80
2019-02-26T00:56:41.117Z,15.80
2019-02-26T00:59:08.463Z,16.42
2019-02-26T01:01:35.767Z,16.65
2019-02-26T01:04:03.103Z,16.82
2019-02-26T01:06:31.245Z,17.65
2019-02-26T01:09:01.142Z,18.00
2019-02-26T01:11:30.128Z,16.67
2019-02-26T01:13:57.742Z,19.10
2019-02-26T01:16:26.239Z,18.52
2019-02-26T01:18:53.547Z,17.10
2019-02-26T01:21:24.414Z,17.20
2019-02-26T01:23:49.802Z,18.23
2019-02-26T01:26:17.098Z,17.30
2019-02-26T01:28:48.325Z,17.32
2019-02-26T01:31:13.373Z,19.20
2019-02-26T01:33:40.656Z,19.17
2019-02-26T01:36:07.984Z,18.07
2019-02-26T01:38:37.431Z,18.30
2019-02-26T01:41:04.258Z,17.65
2019-02-26T01:43:31.563Z,17.57
2019-02-26T01:45:58.863Z,17.45
2019-02-26T01:48:26.178Z,19.00
2019-02-26T01:50:54.432Z,18.92
2019-02-26T01:53:23.710Z,18.95
2019-02-26T01:55:51.016Z,19.65
2019-02-26T01:58:18.309Z,18.80
2019-02-26T02:00:45.645Z,17.85
2019-02-26T02:03:12.931Z,19.00
2019-02-26T02:05:40.261Z,19.62
2019-02-26T02:08:11.005Z,19.30
2019-02-26T02:10:36.504Z,20.97
2019-02-26T02:13:04.781Z,20.45
2019-02-26T02:15:32.762Z,20.55
2019-02-26T02:18:01.766Z,20.40
2019-02-26T02:20:29.059Z,18.77
2019-02-26T02:22:58.100Z,20.25
2019-02-26T02:25:28.950Z,21.55
2019-02-26T02:27:55.033Z,20.85
2019-02-26T02:30:30.233Z,19.32
2019-02-26T02:32:55.043Z,21.25
2019-02-26T02:35:21.133Z,19.48
2019-02-26T02:37:50.791Z,19.77
2019-02-26T02:40:17.452Z,20.97
2019-02-26T02:42:46.498Z,21.48
2019-02-26T02:45:16.778Z,20.02
2019-02-26T02:47:42.671Z,19.82
2019-02-26T02:50:12.632Z,19.92
2019-02-26T02:52:40.153Z,20.05
2019-02-26T02:55:10.536Z,19.07
2019-02-26T02:57:36.978Z,19.48
2019-02-26T03:00:08.389Z,20.77
2019-02-26T03:02:38.056Z,19.55
2019-02-26T03:05:04.489Z,19.07
2019-02-26T03:07:31.791Z,19.00
2019-02-26T03:10:03.968Z,19.32
2019-02-26T03:12:29.697Z,18.90
2019-02-26T03:14:59.994Z,19.50
2019-02-26T03:17:25.929Z,20.37
2019-02-26T03:19:55.862Z,20.40
2019-02-26T03:22:22.186Z,17.95
2019-02-26T03:24:51.341Z,19.25
2019-02-26T03:27:18.444Z,18.57
2019-02-26T03:29:47.342Z,22.50
2019-02-26T03:32:14.675Z,20.40
2019-02-26T03:34:42.014Z,20.10
2019-02-26T03:37:10.996Z,21.93
2019-02-26T03:39:38.457Z,23.12
2019-02-26T03:42:05.770Z,22.00
2019-02-26T03:44:33.069Z,22.48
2019-02-26T03:47:00.384Z,23.02
2019-02-26T03:49:27.682Z,22.37
2019-02-26T03:51:59.098Z,21.70
2019-02-26T03:54:23.941Z,21.48
2019-02-26T03:56:51.266Z,22.85
2019-02-26T03:59:18.550Z,21.68
2019-02-26T04:01:45.870Z,22.15
2019-02-26T04:04:13.171Z,20.88
2019-02-26T04:06:41.136Z,20.08
2019-02-26T04:09:11.075Z,21.12
2019-02-26T04:11:39.622Z,20.05
2019-02-26T04:14:12.108Z,21.45
2019-02-26T04:16:37.969Z,21.12
2019-02-26T04:19:05.899Z,21.10
2019-02-26T04:21:52.292Z,20.77
2019-02-26T04:24:19.582Z,21.33
2019-02-26T04:26:48.525Z,21.00
2019-02-26T04:29:17.454Z,23.02
2019-02-26T04:31:57.610Z,22.13
2019-02-26T04:34:26.036Z,21.40
2019-02-26T04:37:04.752Z,21.23
2019-02-26T04:39:34.869Z,21.60
2019-02-26T04:42:05.538Z,20.82
2019-02-26T04:44:54.516Z,23.87
2019-02-26T04:47:23.587Z,22.50
2019-02-26T04:49:50.127Z,21.07
2019-02-26T04:52:17.585Z,22.35
2019-02-26T04:54:44.927Z,21.80
2019-02-26T04:57:12.241Z,22.73
2019-02-26T04:59:41.309Z,22.15
2019-02-26T05:02:08.470Z,22.07
2019-02-26T05:04:36.842Z,22.42
2019-02-26T05:07:07.480Z,22.62
2019-02-26T05:09:35.396Z,23.27
2019-02-26T05:12:02.690Z,22.10
2019-02-26T05:14:29.947Z,21.33
2019-02-26T05:16:57.265Z,20.05
2019-02-26T05:19:24.586Z,21.73
2019-02-26T05:21:53.600Z,22.13
2019-02-26T05:24:21.817Z,23.38
2019-02-26T05:26:49.787Z,23.85
2019-02-26T05:29:17.101Z,24.82
2019-02-26T05:31:44.405Z,26.73
2019-02-26T05:34:12.412Z,22.75
2019-02-26T05:36:43.523Z,22.98
2019-02-26T05:39:09.619Z,22.70
2019-02-26T05:41:36.936Z,22.37
2019-02-26T05:44:07.527Z,24.98
2019-02-26T05:46:33.194Z,22.48
2019-02-26T05:49:00.566Z,21.90
2019-02-26T05:51:29.869Z,21.85
2019-02-26T05:54:01.306Z,21.85
2019-02-26T05:56:25.779Z,24.15
2019-02-26T05:58:53.110Z,24.87
2019-02-26T06:01:22.497Z,26.25
2019-02-26T06:03:51.756Z,23.95
2019-02-26T06:06:18.314Z,35.33
2019-02-26T06:08:45.636Z,24.20
2019-02-26T06:11:12.920Z,23.10
2019-02-26T06:13:41.162Z,24.82
2019-02-26T06:16:09.193Z,24.43
2019-02-26T06:18:36.501Z,25.45
2019-02-26T06:21:03.850Z,25.05
2019-02-26T06:23:33.843Z,22.93
2019-02-26T06:26:02.289Z,22.40
2019-02-26T06:28:29.101Z,21.57
2019-02-26T06:30:56.397Z,23.27
2019-02-26T06:33:23.718Z,23.30
2019-02-26T06:35:51.010Z,21.90
2019-02-26T06:38:18.307Z,23.77
2019-02-26T06:40:47.123Z,23.12
2019-02-26T06:43:14.586Z,21.65
2019-02-26T06:45:43.590Z,27.85
2019-02-26T06:48:14.699Z,27.17
2019-02-26T06:50:41.603Z,26.87
2019-02-26T06:53:10.939Z,22.02
2019-02-26T06:55:37.705Z,23.60
2019-02-26T06:58:17.886Z,25.80
2019-02-26T07:00:46.392Z,23.67
2019-02-26T07:03:14.197Z,24.85
2019-02-26T07:05:42.045Z,24.55
2019-02-26T07:08:10.468Z,24.77
2019-02-26T07:10:37.775Z,23.55
2019-02-26T07:13:06.971Z,23.10
2019-02-26T07:15:34.014Z,22.90
2019-02-26T07:18:04.418Z,22.82
2019-02-26T07:20:34.021Z,22.40
2019-02-26T07:22:59.254Z,22.42
2019-02-26T07:25:26.578Z,22.25
2019-02-26T07:27:55.841Z,22.98
2019-02-26T07:30:23.010Z,22.95
2019-02-26T07:32:50.339Z,24.15
2019-02-26T07:35:17.646Z,22.75
2019-02-26T07:37:45.045Z,21.02
2019-02-26T07:40:15.232Z,22.65
2019-02-26T07:42:41.953Z,22.27
2019-02-26T07:45:15.122Z,22.67
2019-02-26T07:47:39.875Z,23.25
2019-02-26T07:50:12.286Z,22.98
2019-02-26T07:52:39.557Z,21.42
2019-02-26T07:55:12.016Z,22.80
2019-02-26T07:57:40.457Z,23.65
2019-02-26T08:00:09.645Z,22.45
2019-02-26T08:02:37.355Z,20.12
2019-02-26T08:05:04.834Z,20.12
2019-02-26T08:07:32.135Z,21.90
2019-02-26T08:09:59.448Z,23.70
2019-02-26T08:12:26.772Z,22.52
2019-02-26T08:14:54.091Z,23.40
2019-02-26T08:17:21.386Z,22.37
2019-02-26T08:19:49.333Z,23.20
2019-02-26T08:22:16.802Z,22.13
2019-02-26T08:24:46.075Z,22.62
2019-02-26T08:27:13.536Z,21.50
2019-02-26T08:29:40.954Z,21.23
2019-02-26T08:32:08.276Z,21.68
2019-02-26T08:34:39.203Z,23.65
2019-02-26T08:37:04.513Z,20.50
2019-02-26T08:39:31.840Z,21.20
2019-02-26T08:42:03.007Z,18.10
2019-02-26T08:44:30.307Z,19.07
2019-02-26T08:46:57.593Z,19.12
2019-02-26T08:49:24.919Z,18.67
2019-02-26T08:51:52.219Z,19.07
2019-02-26T08:54:21.111Z,18.67
2019-02-26T08:56:48.478Z,19.77
2019-02-26T08:59:17.651Z,19.92
2019-02-26T09:01:44.763Z,19.30
2019-02-26T09:04:12.737Z,18.87
2019-02-26T09:06:41.034Z,18.82
2019-02-26T09:09:08.323Z,18.40
2019-02-26T09:11:36.977Z,18.87
2019-02-26T09:14:06.586Z,24.23
2019-02-26T09:16:33.551Z,23.83
2019-02-26T09:19:00.841Z,21.57
2019-02-26T09:21:28.129Z,22.42
2019-02-26T09:23:57.074Z,20.50
2019-02-26T09:26:24.400Z,17.87
2019-02-26T09:28:52.384Z,21.17
2019-02-26T09:31:20.654Z,19.25
2019-02-26T09:33:47.975Z,20.08
2019-02-26T09:36:17.934Z,20.10
2019-02-26T09:38:44.986Z,19.77
2019-02-26T09:41:14.207Z,20.55
2019-02-26T09:43:43.280Z,20.05
2019-02-26T09:46:14.393Z,19.62
2019-02-26T09:48:41.098Z,18.45
2019-02-26T09:51:09.806Z,17.92
2019-02-26T09:53:37.973Z,17.60
2019-02-26T09:56:05.266Z,17.95
2019-02-26T09:58:32.558Z,19.50
2019-02-26T10:00:59.905Z,19.70
2019-02-26T10:03:29.164Z,19.05
2019-02-26T10:05:57.945Z,18.60
2019-02-26T10:08:27.226Z,17.73
2019-02-26T10:10:55.034Z,19.05
2019-02-26T10:13:25.011Z,16.73
2019-02-26T10:15:51.971Z,17.67
2019-02-26T10:18:21.007Z,18.00
2019-02-26T10:20:49.917Z,16.00
2019-02-26T10:23:19.218Z,18.75
2019-02-26T10:25:46.136Z,16.87
2019-02-26T10:28:14.204Z,17.48
2019-02-26T10:30:42.371Z,17.40
2019-02-26T10:33:09.694Z,16.12
2019-02-26T10:35:39.701Z,16.45
2019-02-26T10:38:08.249Z,16.60
2019-02-26T10:40:40.753Z,16.57
2019-02-26T10:43:03.951Z,15.20
2019-02-26T10:45:36.207Z,16.80
2019-02-26T10:48:01.697Z,15.60
2019-02-26T10:50:31.530Z,15.75
2019-02-26T10:53:06.532Z,15.00
2019-02-26T10:55:35.438Z,14.07
2019-02-26T10:57:58.387Z,14.45
2019-02-26T11:00:28.035Z,14.80
2019-02-26T11:02:54.540Z,15.63
2019-02-26T11:05:26.174Z,15.58
2019-02-26T11:07:53.193Z,14.05
2019-02-26T11:10:21.001Z,13.25
2019-02-26T11:12:50.538Z,14.28
2019-02-26T11:15:18.267Z,13.10
2019-02-26T11:17:46.122Z,11.80
2019-02-26T11:20:15.191Z,13.35
2019-02-26T11:22:44.726Z,13.88
2019-02-26T11:25:13.347Z,13.55
2019-02-26T11:27:43.501Z,12.65
2019-02-26T11:30:14.616Z,14.47
2019-02-26T11:32:42.289Z,12.47
2019-02-26T11:35:10.974Z,14.25
2019-02-26T11:37:38.286Z,14.40
2019-02-26T11:40:09.628Z,13.18
2019-02-26T11:42:36.936Z,13.75
2019-02-26T11:45:07.428Z,15.68
2019-02-26T11:47:36.756Z,14.25
2019-02-26T11:50:06.950Z,13.30
2019-02-26T11:52:36.434Z,12.37
2019-02-26T11:55:05.951Z,13.90
2019-02-26T11:57:34.857Z,12.37
2019-02-26T12:00:01.986Z,11.03
2019-02-26T12:02:33.816Z,11.35
2019-02-26T12:05:00.038Z,11.43
2019-02-26T12:07:29.774Z,11.10
2019-02-26T12:09:57.862Z,12.10
2019-02-26T12:12:26.265Z,12.75
2019-02-26T12:14:54.599Z,12.88
2019-02-26T12:17:21.899Z,11.57
2019-02-26T12:19:51.477Z,11.75
2019-02-26T12:22:20.331Z,11.90
2019-02-26T12:24:47.824Z,10.23
2019-02-26T12:27:18.163Z,11.83
2019-02-26T12:29:47.835Z,11.63
2019-02-26T12:32:13.986Z,10.75
2019-02-26T12:34:44.584Z,9.63
2019-02-26T12:37:11.679Z,11.50
2019-02-26T12:39:39.061Z,9.73
2019-02-26T12:42:07.331Z,10.38
2019-02-26T12:44:37.996Z,10.88
2019-02-26T12:47:04.266Z,9.38
2019-02-26T12:49:33.285Z,9.70
2019-02-26T12:52:03.271Z,8.65
2019-02-26T12:54:31.277Z,9.65
2019-02-26T12:57:00.398Z,9.88
2019-02-26T12:59:27.393Z,8.78
2019-02-26T13:01:54.712Z,9.00
2019-02-26T13:04:24.916Z,9.80
2019-02-26T13:06:51.970Z,8.03
2019-02-26T13:09:19.365Z,7.30
2019-02-26T13:12:00.721Z,7.77
2019-02-26T13:14:15.600Z,8.93
2019-02-26T13:16:46.115Z,7.17
2019-02-26T13:19:11.863Z,6.40
2019-02-26T13:21:42.767Z,7.03
2019-02-26T13:24:12.375Z,5.20
2019-02-26T13:26:38.933Z,6.60
2019-02-26T13:29:05.995Z,6.30
2019-02-26T13:31:35.871Z,6.97
2019-02-26T13:34:02.325Z,5.70
2019-02-26T13:36:29.557Z,6.20
2019-02-26T13:38:56.842Z,6.50
2019-02-26T13:41:30.011Z,6.10
2019-02-26T13:43:53.115Z,6.35
2019-02-26T13:56:07.073Z,6.70
2019-02-26T14:01:01.006Z,3.80
2019-02-26T14:03:28.326Z,3.17
2019-02-26T14:05:55.615Z,2.30
2019-02-26T14:08:22.906Z,2.97
2019-02-26T14:10:50.213Z,3.20
2019-02-26T14:13:17.501Z,2.40
2019-02-26T14:15:44.861Z,2.60
2019-02-26T14:18:12.174Z,2.77
2019-02-26T14:20:39.462Z,3.43
2019-02-26T14:23:06.764Z,3.10
2019-02-26T14:25:34.061Z,3.57
2019-02-26T14:28:01.345Z,3.47
2019-02-26T14:30:28.858Z,5.10
2019-02-26T14:32:56.146Z,6.43
2019-02-26T14:35:23.454Z,5.70
2019-02-26T14:37:50.736Z,6.33
2019-02-26T14:40:18.704Z,4.80
2019-02-26T14:42:46.023Z,6.00
2019-02-26T14:45:14.937Z,6.80
2019-02-26T14:47:42.255Z,5.90
2019-02-26T14:50:11.174Z,6.63
2019-02-26T14:52:38.585Z,4.97
2019-02-26T14:55:06.650Z,5.10
2019-02-26T14:57:33.938Z,5.50
2019-02-26T15:00:01.254Z,6.33
2019-02-26T15:02:28.544Z,5.60
2019-02-26T15:04:57.074Z,6.47
2019-02-26T15:07:24.358Z,6.27
2019-02-26T15:09:51.648Z,6.13
2019-02-26T15:12:18.962Z,6.93
2019-02-26T15:14:48.722Z,7.00
2019-02-26T15:17:15.218Z,6.83
2019-02-26T15:19:49.638Z,6.03
2019-02-26T15:22:11.442Z,6.00
2019-02-26T15:24:38.764Z,5.73
2019-02-26T15:27:06.070Z,6.80
2019-02-26T15:29:33.389Z,4.67
2019-02-26T15:32:00.778Z,6.80
2019-02-26T15:34:28.057Z,4.53
2019-02-26T15:36:55.379Z,4.70
2019-02-26T15:39:22.686Z,4.70
2019-02-26T15:41:50.530Z,4.50
2019-02-26T15:44:17.864Z,3.95
2019-02-26T15:46:45.184Z,4.40
2019-02-26T15:49:12.490Z,4.60
2019-02-26T15:54:06.487Z,3.90
2019-02-26T15:56:33.796Z,4.90
2019-02-26T15:59:04.558Z,4.73
2019-02-26T16:01:30.238Z,5.07
2019-02-26T16:03:57.541Z,4.77
2019-02-26T16:06:24.839Z,4.60
2019-02-26T16:08:52.198Z,5.97
2019-02-26T16:11:19.480Z,7.75
2019-02-26T16:13:46.795Z,7.70
2019-02-26T16:16:14.108Z,7.03
2019-02-26T16:18:41.409Z,7.00
2019-02-26T16:21:08.715Z,8.03
2019-02-26T16:23:36.018Z,7.50
2019-02-26T16:26:03.354Z,8.35
2019-02-26T16:28:32.306Z,8.20
2019-02-26T16:30:59.607Z,8.55
2019-02-26T16:33:26.943Z,9.80
2019-02-26T16:35:57.620Z,9.48
2019-02-26T16:38:23.171Z,9.98
2019-02-26T16:40:50.601Z,9.95
2019-02-26T16:43:18.071Z,9.65
2019-02-26T16:45:45.404Z,10.05
2019-02-26T16:48:12.726Z,11.63
2019-02-26T16:50:40.022Z,12.03
2019-02-26T16:53:07.318Z,12.35
2019-02-26T16:55:34.639Z,15.93
2019-02-26T16:58:03.159Z,21.60
2019-02-26T17:00:30.925Z,32.28
2019-02-26T17:03:00.952Z,26.27
2019-02-26T17:05:27.445Z,20.43
2019-02-26T17:07:54.966Z,16.05
2019-02-26T17:10:22.756Z,14.40
2019-02-26T17:12:54.290Z,22.05
2019-02-26T17:15:25.495Z,37.33
2019-02-26T17:17:52.182Z,45.15
2019-02-26T17:20:19.538Z,23.40
2019-02-26T17:22:48.446Z,15.50
2019-02-26T17:25:15.761Z,14.25
2019-02-26T17:27:43.059Z,13.38
2019-02-26T17:30:11.441Z,13.90
2019-02-26T17:32:38.973Z,12.88
2019-02-26T17:35:07.332Z,15.23
2019-02-26T17:37:34.652Z,16.75
2019-02-26T17:40:03.275Z,15.70
2019-02-26T17:42:31.069Z,11.80
2019-02-26T17:44:58.371Z,9.85
2019-02-26T17:47:25.888Z,9.53
2019-02-26T17:49:53.222Z,9.20
2019-02-26T17:52:20.523Z,8.23
2019-02-26T17:54:49.258Z,7.40
2019-02-26T17:57:16.767Z,8.38
2019-02-26T17:59:44.067Z,14.90
2019-02-26T18:02:11.512Z,12.85
2019-02-26T18:04:38.783Z,10.68
2019-02-26T18:07:06.085Z,8.73
2019-02-26T18:09:34.547Z,8.60
2019-02-26T18:12:02.856Z,9.40
2019-02-26T18:14:30.093Z,9.20
2019-02-26T18:16:57.387Z,11.70
2019-02-26T18:19:24.745Z,11.75
2019-02-26T18:21:58.548Z,10.75
2019-02-26T18:24:25.833Z,12.35
2019-02-26T18:26:53.396Z,11.20
2019-02-26T18:29:21.202Z,11.55
2019-02-26T18:31:48.501Z,14.78
2019-02-26T18:34:15.814Z,9.23
2019-02-26T18:36:45.300Z,12.00
2019-02-26T18:39:12.086Z,9.88
2019-02-26T18:41:39.413Z,12.43
2019-02-26T18:44:06.781Z,13.83
2019-02-26T18:46:34.229Z,16.35
2019-02-26T18:49:01.670Z,15.28
2019-02-26T18:51:29.033Z,16.00
2019-02-26T18:53:56.326Z,17.20
2019-02-26T18:56:23.659Z,20.88
2019-02-26T18:58:51.853Z,16.07
2019-02-26T19:01:19.378Z,19.23
2019-02-26T19:03:46.734Z,14.85
2019-02-26T19:06:14.053Z,14.00
2019-02-26T19:08:41.349Z,10.45
2019-02-26T19:11:08.671Z,12.55
2019-02-26T19:13:36.300Z,11.15
2019-02-26T19:16:03.603Z,13.13
2019-02-26T19:18:30.913Z,12.13
2019-02-26T19:20:58.218Z,11.35
2019-02-26T19:23:25.534Z,12.05
2019-02-26T19:25:52.836Z,11.15
2019-02-26T19:28:20.171Z,10.25
2019-02-26T19:30:47.464Z,11.88
2019-02-26T19:33:14.773Z,11.12
2019-02-26T19:35:42.086Z,10.20
2019-02-26T19:38:09.378Z,11.60
2019-02-26T19:40:41.111Z,11.40
2019-02-26T19:43:08.418Z,13.75
2019-02-26T19:45:35.720Z,13.05
2019-02-26T19:48:03.030Z,11.55
2019-02-26T19:50:30.418Z,11.97
2019-02-26T19:53:02.263Z,13.38
2019-02-26T19:55:30.786Z,12.82
2019-02-26T19:57:58.109Z,14.75
2019-02-26T20:00:25.478Z,13.88
2019-02-26T20:02:52.818Z,14.10
2019-02-26T20:05:20.120Z,16.05
2019-02-26T20:07:47.460Z,15.80
2019-02-26T20:10:18.098Z,14.70
2019-02-26T20:12:45.403Z,17.12
2019-02-26T20:15:13.419Z,15.72
2019-02-26T20:17:40.783Z,16.20
2019-02-26T20:20:09.350Z,18.02
2019-02-26T20:22:36.666Z,15.75
2019-02-26T20:25:05.235Z,19.27
2019-02-26T20:27:32.555Z,20.10
2019-02-26T20:29:59.854Z,21.80
2019-02-26T20:32:30.891Z,20.55
2019-02-26T20:34:56.132Z,21.27
2019-02-26T20:37:24.320Z,21.55
2019-02-26T20:39:52.376Z,18.62
2019-02-26T20:42:19.727Z,20.23
2019-02-26T20:44:47.077Z,17.90
2019-02-26T20:47:14.400Z,23.70
2019-02-26T20:49:43.680Z,24.12
2019-02-26T20:52:10.656Z,22.10
2019-02-26T20:54:37.950Z,22.05
2019-02-26T20:57:05.346Z,22.67
2019-02-26T20:59:32.672Z,20.55
2019-02-26T21:01:59.983Z,17.70
2019-02-26T21:04:27.275Z,18.73
2019-02-26T21:06:54.599Z,16.65
2019-02-26T21:09:21.898Z,20.50
2019-02-26T21:11:49.204Z,20.10
2019-02-26T21:14:16.562Z,20.80
2019-02-26T21:16:43.892Z,16.42
2019-02-26T21:19:11.225Z,14.30
2019-02-26T21:21:38.567Z,17.30
2019-02-26T21:24:05.913Z,20.45
2019-02-26T21:26:33.297Z,20.75
2019-02-26T21:29:00.627Z,20.60
2019-02-26T21:31:28.028Z,20.52
2019-02-26T21:33:55.347Z,18.45
2019-02-26T21:36:22.653Z,16.90
2019-02-26T21:38:50.040Z,16.87
2019-02-26T21:41:17.349Z,19.57
2019-02-26T21:43:44.646Z,17.02
2019-02-26T21:46:11.961Z,18.37
2019-02-26T21:48:39.302Z,16.60
2019-02-26T21:51:06.908Z,16.20
2019-02-26T21:53:34.188Z,16.27
2019-02-26T21:56:01.517Z,16.67
2019-02-26T21:58:28.817Z,17.23
2019-02-26T22:00:56.122Z,16.45
2019-02-26T22:03:24.798Z,16.80
2019-02-26T22:05:52.483Z,17.25
2019-02-26T22:08:19.800Z,16.55
2019-02-26T22:10:47.105Z,16.15
2019-02-26T22:13:14.426Z,16.25
2019-02-26T22:15:42.092Z,15.88
2019-02-26T22:18:10.707Z,16.45
2019-02-26T22:20:38.018Z,17.40
2019-02-26T22:23:05.329Z,16.55
2019-02-26T22:25:32.642Z,16.67
2019-02-26T22:27:59.964Z,16.55
2019-02-26T22:30:27.280Z,17.42
2019-02-26T22:32:54.588Z,17.77
2019-02-26T22:35:25.614Z,18.17
2019-02-26T22:37:50.853Z,17.65
2019-02-26T22:40:18.177Z,17.27
2019-02-26T22:42:45.479Z,19.25
2019-02-26T22:45:13.943Z,20.17
2019-02-26T22:47:43.701Z,17.75
2019-02-26T22:50:11.367Z,19.20
2019-02-26T22:52:41.613Z,18.45
2019-02-26T22:55:09.889Z,17.87
2019-02-26T22:57:37.177Z,17.00
2019-02-26T23:00:06.199Z,16.20
2019-02-26T23:02:35.286Z,16.80
2019-02-26T23:05:02.628Z,15.90
2019-02-26T23:07:29.941Z,16.70
2019-02-26T23:09:57.529Z,16.37
2019-02-26T23:12:24.997Z,16.82
2019-02-26T23:14:52.669Z,16.80
2019-02-26T23:17:19.997Z,15.95
2019-02-26T23:19:47.292Z,17.32
2019-02-26T23:22:14.701Z,16.50
2019-02-26T23:24:42.210Z,16.35
2019-02-26T23:27:09.505Z,18.02
2019-02-26T23:29:38.089Z,16.97
2019-02-26T23:32:06.164Z,15.85
2019-02-26T23:34:34.089Z,16.32
2019-02-26T23:37:01.514Z,17.17
2019-02-26T23:39:28.953Z,17.87
2019-02-26T23:41:56.279Z,17.70
2019-02-26T23:44:23.598Z,17.32
2019-02-26T23:46:50.889Z,16.85
2019-02-26T23:49:18.206Z,16.32
2019-02-26T23:51:45.558Z,16.45
2019-02-26T23:54:12.880Z,16.32
2019-02-26T23:56:40.178Z,16.27
2019-02-26T23:59:07.499Z,17.65
